createdAt,value
2018-10-09T00:02:56.869Z,6.50
2018-10-09T00:07:50.124Z,6.80
2018-10-09T00:12:43.395Z,6.80
2018-10-09T00:17:36.732Z,7.35
2018-10-09T00:22:30.060Z,8.23
2018-10-09T00:27:23.288Z,7.85
2018-10-09T00:32:16.539Z,7.65
2018-10-09T00:37:09.755Z,7.37
2018-10-09T00:42:03.042Z,7.35
2018-10-09T00:46:56.318Z,8.58
2018-10-09T00:51:50.542Z,8.58
2018-10-09T00:56:43.821Z,9.00
2018-10-09T01:01:37.053Z,8.38
2018-10-09T01:06:30.352Z,7.80
2018-10-09T01:11:23.592Z,8.15
2018-10-09T01:16:16.851Z,8.35
2018-10-09T01:21:10.088Z,8.75
2018-10-09T01:26:03.314Z,7.92
2018-10-09T01:30:56.562Z,8.58
2018-10-09T01:35:49.815Z,8.70
2018-10-09T01:40:43.027Z,8.70
2018-10-09T01:45:36.311Z,9.03
2018-10-09T01:50:29.547Z,7.70
2018-10-09T01:55:22.817Z,8.28
2018-10-09T02:00:16.149Z,7.85
2018-10-09T02:05:09.714Z,7.55
2018-10-09T02:10:03.002Z,7.30
2018-10-09T02:14:56.283Z,6.92
2018-10-09T02:19:49.534Z,6.92
2018-10-09T02:24:42.775Z,7.17
2018-10-09T02:29:36.032Z,8.13
2018-10-09T02:34:29.286Z,7.53
2018-10-09T02:39:22.501Z,7.65
2018-10-09T02:44:15.802Z,7.28
2018-10-09T02:49:09.016Z,7.50
2018-10-09T02:54:02.253Z,7.55
2018-10-09T02:58:55.513Z,7.97
2018-10-09T03:03:48.758Z,7.30
2018-10-09T03:08:42.165Z,7.50
2018-10-09T03:13:35.362Z,7.28
2018-10-09T03:18:28.553Z,8.05
2018-10-09T03:23:21.768Z,7.47
2018-10-09T03:28:15.016Z,7.35
2018-10-09T03:33:08.255Z,8.05
2018-10-09T03:38:01.544Z,6.95
2018-10-09T03:42:54.776Z,8.00
2018-10-09T03:47:48.075Z,7.25
2018-10-09T03:52:41.330Z,7.50
2018-10-09T03:57:34.584Z,7.72
2018-10-09T04:02:27.823Z,8.60
2018-10-09T04:07:21.134Z,8.43
2018-10-09T04:12:14.404Z,7.95
2018-10-09T04:17:07.665Z,8.98
2018-10-09T04:22:00.906Z,8.40
2018-10-09T04:26:54.171Z,8.50
2018-10-09T04:31:47.377Z,8.93
2018-10-09T04:36:40.601Z,8.20
2018-10-09T04:41:35.360Z,7.90
2018-10-09T04:46:28.714Z,8.03
2018-10-09T04:51:21.976Z,8.90
2018-10-09T04:56:15.610Z,9.03
2018-10-09T05:01:08.838Z,7.70
2018-10-09T05:06:08.798Z,8.20
2018-10-09T05:11:02.018Z,8.45
2018-10-09T05:15:55.256Z,8.03
2018-10-09T05:20:48.424Z,7.78
2018-10-09T05:25:41.676Z,8.53
2018-10-09T05:30:35.412Z,8.28
2018-10-09T05:35:28.670Z,10.13
2018-10-09T05:40:21.889Z,7.85
2018-10-09T05:45:15.122Z,8.75
2018-10-09T05:50:09.585Z,10.20
2018-10-09T05:55:03.167Z,8.73
2018-10-09T05:59:56.405Z,8.75
2018-10-09T06:04:49.660Z,8.60
2018-10-09T06:09:42.861Z,9.33
2018-10-09T06:14:36.118Z,9.48
2018-10-09T06:19:29.366Z,9.00
2018-10-09T06:24:22.629Z,9.68
2018-10-09T06:29:16.392Z,9.75
2018-10-09T06:34:09.754Z,8.70
2018-10-09T06:39:04.264Z,9.68
2018-10-09T06:43:57.588Z,9.30
2018-10-09T06:48:50.915Z,10.45
2018-10-09T06:53:44.274Z,9.67
2018-10-09T06:58:37.645Z,9.35
2018-10-09T07:03:30.872Z,9.55
2018-10-09T07:08:24.173Z,9.85
2018-10-09T07:13:17.429Z,10.00
2018-10-09T07:18:11.053Z,9.95
2018-10-09T07:23:04.312Z,9.85
2018-10-09T07:27:58.045Z,9.03
2018-10-09T07:32:51.687Z,9.90
2018-10-09T07:37:45.059Z,10.30
2018-10-09T07:42:39.421Z,9.58
2018-10-09T07:47:33.019Z,9.70
2018-10-09T07:52:26.684Z,10.38
2018-10-09T07:57:20.156Z,10.08
2018-10-09T08:02:13.677Z,10.03
2018-10-09T08:07:07.627Z,9.78
2018-10-09T08:12:00.886Z,10.13
2018-10-09T08:16:54.318Z,9.50
2018-10-09T08:21:47.663Z,10.55
2018-10-09T08:26:41.014Z,10.08
2018-10-09T08:31:34.323Z,11.38
2018-10-09T08:36:27.558Z,11.65
2018-10-09T08:41:20.824Z,11.53
2018-10-09T08:46:14.186Z,11.57
2018-10-09T08:51:07.410Z,12.03
2018-10-09T08:56:00.668Z,12.43
2018-10-09T09:00:53.926Z,12.63
2018-10-09T09:05:47.142Z,12.40
2018-10-09T09:10:40.389Z,12.95
2018-10-09T09:15:33.685Z,12.50
2018-10-09T09:20:27.373Z,13.15
2018-10-09T09:25:20.623Z,12.15
2018-10-09T09:30:14.831Z,13.15
2018-10-09T09:35:09.383Z,13.60
2018-10-09T09:40:02.762Z,12.78
2018-10-09T09:44:56.299Z,13.30
2018-10-09T09:49:49.636Z,13.00
2018-10-09T09:54:42.969Z,13.28
2018-10-09T09:59:36.331Z,12.63
2018-10-09T10:04:29.573Z,12.33
2018-10-09T10:09:23.242Z,13.55
2018-10-09T10:14:16.895Z,13.10
2018-10-09T10:19:11.667Z,12.85
2018-10-09T10:24:06.463Z,13.93
2018-10-09T10:29:00.012Z,13.43
2018-10-09T10:33:53.453Z,15.00
2018-10-09T10:38:48.418Z,13.80
2018-10-09T10:43:41.689Z,13.48
2018-10-09T10:48:35.095Z,12.93
2018-10-09T10:53:28.324Z,13.90
2018-10-09T10:58:21.577Z,13.50
2018-10-09T11:03:14.808Z,12.60
2018-10-09T11:08:08.095Z,12.43
2018-10-09T11:13:01.367Z,13.35
2018-10-09T11:17:56.356Z,12.05
2018-10-09T11:22:49.719Z,12.28
2018-10-09T11:27:43.144Z,11.83
2018-10-09T11:32:36.508Z,12.75
2018-10-09T11:37:29.819Z,12.18
2018-10-09T11:42:23.816Z,12.58
2018-10-09T11:47:17.177Z,12.98
2018-10-09T11:52:10.385Z,11.85
2018-10-09T11:57:03.670Z,11.20
2018-10-09T12:01:57.244Z,11.63
2018-10-09T12:06:50.535Z,11.68
2018-10-09T12:11:43.848Z,11.93
2018-10-09T12:16:37.133Z,10.13
2018-10-09T12:21:30.511Z,11.30
2018-10-09T12:26:23.887Z,11.85
2018-10-09T12:31:17.332Z,11.83
2018-10-09T12:36:10.836Z,11.00
2018-10-09T12:41:04.109Z,11.55
2018-10-09T12:45:57.380Z,11.35
2018-10-09T12:50:50.661Z,10.85
2018-10-09T12:55:43.963Z,10.40
2018-10-09T13:00:37.193Z,11.65
2018-10-09T13:05:30.808Z,11.10
2018-10-09T13:10:24.071Z,10.50
2018-10-09T13:15:17.569Z,10.85
2018-10-09T13:20:11.055Z,10.30
2018-10-09T13:25:04.523Z,10.88
2018-10-09T13:29:58.008Z,9.58
2018-10-09T13:34:51.356Z,11.28
2018-10-09T13:39:45.807Z,10.00
2018-10-09T13:44:39.065Z,9.70
2018-10-09T13:49:32.309Z,9.50
2018-10-09T13:54:25.897Z,10.40
2018-10-09T13:59:19.141Z,9.93
2018-10-09T14:04:12.965Z,9.55
2018-10-09T14:09:10.015Z,10.05
2018-10-09T14:14:03.345Z,9.30
2018-10-09T14:18:56.664Z,8.78
2018-10-09T14:23:49.902Z,8.90
2018-10-09T14:28:43.196Z,7.55
2018-10-09T14:33:36.420Z,7.80
2018-10-09T14:38:30.395Z,7.53
2018-10-09T14:43:23.627Z,7.67
2018-10-09T14:48:16.888Z,8.10
2018-10-09T14:53:10.526Z,8.38
2018-10-09T14:58:04.103Z,8.90
2018-10-09T15:02:58.362Z,7.55
2018-10-09T15:07:54.015Z,8.13
2018-10-09T15:12:49.486Z,8.15
2018-10-09T15:17:42.902Z,7.85
2018-10-09T15:22:37.190Z,7.72
2018-10-09T15:27:30.569Z,6.92
2018-10-09T15:32:23.877Z,7.03
2018-10-09T15:37:17.895Z,6.60
2018-10-09T15:42:12.247Z,7.25
2018-10-09T15:47:06.673Z,7.67
2018-10-09T15:51:59.918Z,7.25
2018-10-09T15:56:53.511Z,6.72
2018-10-09T16:01:46.731Z,7.17
2018-10-09T16:06:40.095Z,7.28
2018-10-09T16:11:33.353Z,7.60
2018-10-09T16:16:26.609Z,8.30
2018-10-09T16:21:19.889Z,8.38
2018-10-09T16:26:13.159Z,7.53
2018-10-09T16:31:06.593Z,8.43
2018-10-09T16:35:59.816Z,8.43
2018-10-09T16:40:53.318Z,8.80
2018-10-09T16:45:46.551Z,8.78
2018-10-09T16:50:39.909Z,9.28
2018-10-09T16:55:33.992Z,9.03
2018-10-09T17:00:27.406Z,9.10
2018-10-09T17:05:20.669Z,10.53
2018-10-09T17:10:13.916Z,9.95
2018-10-09T17:15:07.693Z,9.40
2018-10-09T17:20:01.126Z,11.95
2018-10-09T17:24:54.823Z,11.53
2018-10-09T17:29:48.744Z,10.75
2018-10-09T17:34:42.073Z,11.80
2018-10-09T17:39:37.632Z,11.78
2018-10-09T17:44:32.100Z,12.03
2018-10-09T17:49:26.258Z,12.15
2018-10-09T17:54:19.775Z,13.40
2018-10-09T17:59:14.179Z,12.70
2018-10-09T18:04:07.881Z,11.68
2018-10-09T18:09:01.091Z,11.48
2018-10-09T18:13:55.525Z,11.68
2018-10-09T18:18:49.123Z,11.00
2018-10-09T18:23:42.747Z,11.40
2018-10-09T18:28:36.036Z,13.08
2018-10-09T18:33:30.846Z,13.40
2018-10-09T18:38:24.050Z,13.48
2018-10-09T18:43:17.993Z,14.30
2018-10-09T18:48:11.271Z,13.72
2018-10-09T18:53:06.823Z,13.60
2018-10-09T18:58:00.132Z,13.25
2018-10-09T19:02:53.408Z,13.90
2018-10-09T19:07:47.430Z,13.45
2018-10-09T19:12:41.069Z,15.45
2018-10-09T19:17:34.706Z,15.95
2018-10-09T19:22:29.384Z,17.00
2018-10-09T19:27:24.975Z,17.40
2018-10-09T19:32:18.436Z,16.90
2018-10-09T19:37:14.370Z,16.70
2018-10-09T19:42:11.857Z,16.23
2018-10-09T19:47:06.030Z,18.90
2018-10-09T19:52:02.037Z,18.82
2018-10-09T19:56:56.551Z,18.80
2018-10-09T20:01:50.377Z,18.42
2018-10-09T20:06:46.447Z,18.30
2018-10-09T20:11:40.654Z,18.00
2018-10-09T20:16:35.061Z,17.42
2018-10-09T20:21:28.850Z,19.10
2018-10-09T20:26:22.405Z,18.75
2018-10-09T20:31:16.166Z,18.37
2018-10-09T20:36:10.012Z,18.23
2018-10-09T20:41:03.609Z,20.00
2018-10-09T20:45:57.091Z,19.95
2018-10-09T20:50:50.685Z,19.75
2018-10-09T20:55:45.408Z,18.77
2018-10-09T21:00:39.473Z,20.00
2018-10-09T21:05:33.139Z,19.70
2018-10-09T21:10:26.747Z,18.75
2018-10-09T21:15:20.352Z,20.17
2018-10-09T21:20:13.860Z,19.60
2018-10-09T21:25:07.369Z,20.27
2018-10-09T21:30:01.018Z,20.10
2018-10-09T21:34:54.527Z,20.95
2018-10-09T21:39:49.317Z,19.37
2018-10-09T21:44:42.617Z,19.10
2018-10-09T21:49:35.940Z,19.25
2018-10-09T21:54:29.138Z,19.37
2018-10-09T21:59:22.384Z,21.12
2018-10-09T22:04:15.610Z,20.75
2018-10-09T22:09:08.915Z,22.22
2018-10-09T22:14:02.133Z,21.12
2018-10-09T22:18:55.397Z,21.42
2018-10-09T22:23:48.630Z,21.55
2018-10-09T22:28:43.869Z,21.95
2018-10-09T22:33:37.148Z,20.82
2018-10-09T22:38:31.419Z,21.33
2018-10-09T22:43:25.643Z,21.30
2018-10-09T22:48:18.893Z,21.62
2018-10-09T22:53:12.167Z,19.37
2018-10-09T22:58:05.691Z,20.88
2018-10-09T23:02:58.947Z,20.70
2018-10-09T23:07:52.539Z,20.52
2018-10-09T23:12:46.068Z,21.20
2018-10-09T23:17:39.287Z,21.45
2018-10-09T23:22:32.533Z,20.57
2018-10-09T23:27:25.785Z,21.70
2018-10-09T23:32:19.066Z,22.75
2018-10-09T23:37:12.297Z,22.20
2018-10-09T23:42:05.510Z,23.32
2018-10-09T23:46:58.767Z,23.60
2018-10-09T23:51:52.014Z,22.67
2018-10-09T23:56:45.327Z,22.05
